createdAt,value
2014-06-06T00:00:20.283Z,15.24
2014-06-06T00:01:24.970Z,15.19
2014-06-06T00:02:29.672Z,15.47
2014-06-06T00:03:34.370Z,15.33
2014-06-06T00:04:39.055Z,15.46
2014-06-06T00:05:43.749Z,15.09
2014-06-06T00:06:48.724Z,14.97
2014-06-06T00:07:53.714Z,14.94
2014-06-06T00:08:58.389Z,14.88
2014-06-06T00:10:03.393Z,15.02
2014-06-06T00:11:08.068Z,15.5
2014-06-06T00:12:12.758Z,15.77
2014-06-06T00:13:17.449Z,15.62
2014-06-06T00:14:22.124Z,15.14
2014-06-06T00:15:27.110Z,15.08
2014-06-06T00:16:32.099Z,15.21
2014-06-06T00:17:36.775Z,15.18
2014-06-06T00:18:41.465Z,14.94
2014-06-06T00:19:46.155Z,15.18
2014-06-06T00:20:51.141Z,15.54
2014-06-06T00:21:55.815Z,15.25
2014-06-06T00:23:00.505Z,15.65
2014-06-06T00:24:04.506Z,15.1
2014-06-06T00:25:09.181Z,15.44
2014-06-06T00:26:13.871Z,15.56
2014-06-06T00:27:18.856Z,15.61
2014-06-06T00:28:23.531Z,15.64
2014-06-06T00:29:28.219Z,15.62
2014-06-06T00:30:33.206Z,15.84
2014-06-06T00:31:37.895Z,15.92
2014-06-06T00:32:42.571Z,15.87
2014-06-06T00:33:47.261Z,15.19
2014-06-06T00:34:52.247Z,14.93
2014-06-06T00:35:56.921Z,15.08
2014-06-06T00:37:01.610Z,15.12
2014-06-06T00:38:06.596Z,15.14
2014-06-06T00:39:11.271Z,15.33
2014-06-06T00:40:15.960Z,14.96
2014-06-06T00:41:20.946Z,14.93
2014-06-06T00:42:25.917Z,15.26
2014-06-06T00:43:30.903Z,15.46
2014-06-06T00:44:35.889Z,15.55
2014-06-06T00:45:40.862Z,15.38
2014-06-06T00:46:45.551Z,15.32
2014-06-06T00:47:50.225Z,15.6
2014-06-06T00:48:55.211Z,15.24
2014-06-06T00:49:59.885Z,15.6
2014-06-06T00:51:04.575Z,15.5
2014-06-06T00:52:09.264Z,15.75
2014-06-06T00:53:13.937Z,15.86
2014-06-06T00:54:18.643Z,15.81
2014-06-06T00:55:23.317Z,15.84
2014-06-06T00:56:27.990Z,15.78
2014-06-06T00:57:32.680Z,15.84
2014-06-06T00:58:37.369Z,15.82
2014-06-06T00:59:42.046Z,15.86
2014-06-06T01:00:46.734Z,15.95
2014-06-06T01:01:51.408Z,16
2014-06-06T01:02:56.395Z,15.56
2014-06-06T01:04:01.069Z,15.42
2014-06-06T01:05:05.758Z,15.52
2014-06-06T01:06:10.432Z,15.42
2014-06-06T01:07:15.121Z,15.53
2014-06-06T01:08:19.794Z,15.71
2014-06-06T01:09:24.782Z,15.72
2014-06-06T01:10:29.768Z,15.28
2014-06-06T01:11:34.441Z,15.53
2014-06-06T01:12:39.130Z,15.34
2014-06-06T01:13:44.103Z,14.68
2014-06-06T01:14:49.090Z,14.85
2014-06-06T01:15:53.779Z,14.88
2014-06-06T01:16:58.453Z,14.88
2014-06-06T01:18:03.439Z,14.94
2014-06-06T01:19:08.129Z,15.08
2014-06-06T01:20:12.802Z,15.26
2014-06-06T01:21:17.491Z,15.34
2014-06-06T01:22:22.165Z,15.3
2014-06-06T01:23:26.855Z,15.04
2014-06-06T01:24:31.529Z,14.97
2014-06-06T01:25:36.219Z,15.3
2014-06-06T01:26:40.892Z,15.26
2014-06-06T01:27:45.583Z,15.48
2014-06-06T01:28:50.257Z,14.98
2014-06-06T01:29:54.947Z,14.3
2014-06-06T01:30:59.932Z,14.44
2014-06-06T01:32:04.606Z,14.52
2014-06-06T01:33:09.296Z,14.66
2014-06-06T01:34:14.267Z,14.6
2014-06-06T01:35:18.957Z,14.66
2014-06-06T01:36:23.943Z,14.67
2014-06-06T01:37:28.616Z,14.62
2014-06-06T01:38:33.602Z,14.82
2014-06-06T01:39:38.573Z,14.57
2014-06-06T01:40:43.263Z,14.65
2014-06-06T01:41:48.235Z,14.57
2014-06-06T01:42:52.925Z,14.54
2014-06-06T01:43:57.896Z,14.7
2014-06-06T01:45:01.897Z,14.55
2014-06-06T01:46:06.883Z,14.62
2014-06-06T01:47:11.557Z,14.9
2014-06-06T01:48:16.247Z,14.63
2014-06-06T01:49:20.937Z,14.37
2014-06-06T01:50:25.610Z,14.6
2014-06-06T01:51:30.299Z,14.54
2014-06-06T01:52:34.973Z,14.6
2014-06-06T01:53:39.959Z,14.55
2014-06-06T01:54:44.633Z,14.5
2014-06-06T01:55:49.309Z,14.66
2014-06-06T01:56:54.296Z,14.7
2014-06-06T01:57:58.298Z,14.8
2014-06-06T01:59:02.971Z,14.76
2014-06-06T02:00:07.661Z,14.72
2014-06-06T02:01:12.334Z,14.72
2014-06-06T02:02:17.008Z,14.68
2014-06-06T02:03:21.995Z,14.7
2014-06-06T02:04:26.668Z,14.73
2014-06-06T02:05:31.654Z,14.56
2014-06-06T02:06:36.344Z,14.6
2014-06-06T02:07:41.018Z,14.78
2014-06-06T02:08:45.707Z,14.74
2014-06-06T02:09:50.383Z,14.72
2014-06-06T02:10:55.072Z,14.71
2014-06-06T02:11:59.761Z,14.69
2014-06-06T02:13:04.733Z,14.62
2014-06-06T02:14:09.421Z,14.59
2014-06-06T02:15:14.392Z,14.5
2014-06-06T02:16:19.083Z,14.44
2014-06-06T02:17:24.053Z,14.5
2014-06-06T02:18:29.039Z,14.64
2014-06-06T02:19:34.009Z,14.58
2014-06-06T02:20:38.699Z,14.5
2014-06-06T02:21:43.373Z,14.62
2014-06-06T02:22:48.062Z,14.69
2014-06-06T02:23:53.035Z,14.64
2014-06-06T02:24:57.724Z,14.56
2014-06-06T02:26:02.397Z,14.56
2014-06-06T02:27:07.088Z,14.37
2014-06-06T02:28:11.777Z,14.2
2014-06-06T02:29:16.451Z,14.18
2014-06-06T02:30:21.437Z,14.1
2014-06-06T02:31:26.112Z,14.34
2014-06-06T02:32:31.097Z,14.72
2014-06-06T02:33:35.771Z,14.56
2014-06-06T02:34:40.460Z,14.72
2014-06-06T02:35:45.150Z,14.38
2014-06-06T02:36:49.824Z,14.48
2014-06-06T02:37:54.514Z,14.61
2014-06-06T02:38:59.189Z,14.66
2014-06-06T02:40:04.175Z,14.65
2014-06-06T02:41:09.161Z,14.49
2014-06-06T02:42:13.835Z,14.54
2014-06-06T02:43:18.524Z,14.32
2014-06-06T02:44:23.198Z,14.32
2014-06-06T02:45:27.888Z,14.44
2014-06-06T02:46:32.858Z,14.45
2014-06-06T02:47:37.548Z,14.46
2014-06-06T02:48:42.222Z,14.64
2014-06-06T02:49:46.911Z,14.48
2014-06-06T02:50:51.881Z,14.47
2014-06-06T02:51:56.573Z,14.23
2014-06-06T02:53:01.262Z,14.09
2014-06-06T02:54:05.936Z,14
2014-06-06T02:55:10.611Z,14.36
2014-06-06T02:56:15.300Z,14.31
2014-06-06T02:57:19.974Z,14.36
2014-06-06T02:58:24.959Z,14.42
2014-06-06T02:59:29.633Z,14.54
2014-06-06T03:00:34.323Z,14.26
2014-06-06T03:01:39.012Z,14.16
2014-06-06T03:02:43.686Z,14.38
2014-06-06T03:03:48.375Z,13.97
2014-06-06T03:04:53.049Z,13.83
2014-06-06T03:05:58.037Z,13.72
2014-06-06T03:07:02.711Z,13.68
2014-06-06T03:08:07.401Z,14.02
2014-06-06T03:09:12.075Z,14.08
2014-06-06T03:10:17.062Z,14.14
2014-06-06T03:11:22.031Z,13.93
2014-06-06T03:12:26.721Z,13.69
2014-06-06T03:13:31.004Z,13.71
2014-06-06T03:14:35.694Z,13.66
2014-06-06T03:15:40.680Z,13.73
2014-06-06T03:16:45.651Z,13.75
2014-06-06T03:17:50.636Z,13.72
2014-06-06T03:18:55.311Z,13.76
2014-06-06T03:20:00.000Z,13.64
2014-06-06T03:21:04.971Z,13.74
2014-06-06T03:22:09.660Z,13.43
2014-06-06T03:23:14.351Z,13.8
2014-06-06T03:24:19.025Z,13.98
2014-06-06T03:25:23.716Z,13.76
2014-06-06T03:26:28.686Z,14.03
2014-06-06T03:27:33.673Z,14.18
2014-06-06T03:28:38.346Z,14.36
2014-06-06T03:29:43.035Z,14.35
2014-06-06T03:30:47.709Z,14.58
2014-06-06T03:31:52.398Z,14.31
2014-06-06T03:32:57.088Z,13.94
2014-06-06T03:34:01.762Z,13.79
2014-06-06T03:35:06.451Z,14.05
2014-06-06T03:36:11.125Z,14.22
2014-06-06T03:37:15.816Z,14.48
2014-06-06T03:38:20.787Z,13.95
2014-06-06T03:39:25.773Z,13.86
2014-06-06T03:40:30.447Z,13.83
2014-06-06T03:41:35.136Z,13.88
2014-06-06T03:42:39.826Z,13.78
2014-06-06T03:43:43.812Z,13.73
2014-06-06T03:44:48.533Z,13.81
2014-06-06T03:45:53.207Z,13.81
2014-06-06T03:46:57.896Z,13.73
2014-06-06T03:48:02.570Z,13.73
2014-06-06T03:49:07.556Z,13.74
2014-06-06T03:50:12.230Z,14.12
2014-06-06T03:51:17.217Z,14.11
2014-06-06T03:52:21.906Z,14.05
2014-06-06T03:53:26.596Z,14.08
2014-06-06T03:54:31.272Z,13.89
2014-06-06T03:55:35.960Z,13.94
2014-06-06T03:56:40.932Z,13.94
2014-06-06T03:57:45.605Z,13.73
2014-06-06T03:58:50.295Z,13.83
2014-06-06T03:59:54.984Z,13.68
2014-06-06T04:00:59.658Z,13.5
2014-06-06T04:02:04.347Z,13.68
2014-06-06T04:03:09.022Z,13.56
2014-06-06T04:04:13.710Z,13.86
2014-06-06T04:05:18.697Z,14.08
2014-06-06T04:06:23.386Z,13.81
2014-06-06T04:07:28.357Z,13.98
2014-06-06T04:08:33.345Z,14.11
2014-06-06T04:09:38.316Z,14.18
2014-06-06T04:10:43.006Z,14.23
2014-06-06T04:11:47.680Z,13.98
2014-06-06T04:12:52.666Z,14.16
2014-06-06T04:13:57.340Z,14.31
2014-06-06T04:15:02.028Z,13.97
2014-06-06T04:16:07.015Z,13.95
2014-06-06T04:17:11.985Z,13.92
2014-06-06T04:18:16.972Z,13.56
2014-06-06T04:19:21.647Z,13.69
2014-06-06T04:20:26.321Z,13.84
2014-06-06T04:21:31.009Z,13.97
2014-06-06T04:22:35.684Z,13.94
2014-06-06T04:23:40.372Z,13.72
2014-06-06T04:24:45.062Z,13.67
2014-06-06T04:25:50.033Z,13.54
2014-06-06T04:26:54.724Z,13.52
2014-06-06T04:27:59.695Z,13.49
2014-06-06T04:29:04.681Z,13.43
2014-06-06T04:30:09.355Z,13.34
2014-06-06T04:31:14.045Z,13.52
2014-06-06T04:32:19.014Z,14.13
2014-06-06T04:33:23.704Z,14.14
2014-06-06T04:34:28.378Z,14.34
2014-06-06T04:35:33.364Z,14.4
2014-06-06T04:36:38.038Z,14.46
2014-06-06T04:37:42.728Z,14.3
2014-06-06T04:38:47.699Z,14.3
2014-06-06T04:39:52.388Z,14.4
2014-06-06T04:40:57.063Z,14.6
2014-06-06T04:42:02.050Z,14.88
2014-06-06T04:43:07.036Z,14.72
2014-06-06T04:44:11.710Z,14.9
2014-06-06T04:45:16.400Z,14.92
2014-06-06T04:46:21.074Z,15.03
2014-06-06T04:47:25.763Z,14.99
2014-06-06T04:48:30.733Z,15.32
2014-06-06T04:49:35.423Z,15.36
2014-06-06T04:50:40.113Z,15.4
2014-06-06T04:51:44.786Z,15.5
2014-06-06T04:52:49.461Z,15.46
2014-06-06T04:53:54.150Z,15.62
2014-06-06T04:54:58.839Z,15.76
2014-06-06T04:56:03.513Z,15.81
2014-06-06T04:57:08.204Z,15.58
2014-06-06T04:58:12.894Z,15.88
2014-06-06T04:59:17.567Z,15.86
2014-06-06T05:00:22.273Z,15.79
2014-06-06T05:01:27.259Z,16.21
2014-06-06T05:02:31.933Z,16.23
2014-06-06T05:03:36.621Z,16.38
2014-06-06T05:04:41.608Z,16.6
2014-06-06T05:05:46.282Z,16.56
2014-06-06T05:06:50.971Z,16.65
2014-06-06T05:07:55.942Z,16.5
2014-06-06T05:09:00.631Z,16.36
2014-06-06T05:10:05.321Z,16.17
2014-06-06T05:11:09.997Z,16.47
2014-06-06T05:12:14.685Z,16.64
2014-06-06T05:13:19.376Z,16.54
2014-06-06T05:14:24.065Z,16.58
2014-06-06T05:15:28.739Z,16.56
2014-06-06T05:16:33.429Z,16.73
2014-06-06T05:17:38.399Z,16.86
2014-06-06T05:18:43.088Z,16.72
2014-06-06T05:19:47.763Z,16.97
2014-06-06T05:20:52.451Z,17.11
2014-06-06T05:21:57.125Z,16.82
2014-06-06T05:23:01.815Z,16.9
2014-06-06T05:24:06.801Z,17.08
2014-06-06T05:25:11.492Z,16.86
2014-06-06T05:26:16.166Z,17.12
2014-06-06T05:27:20.855Z,16.94
2014-06-06T05:28:25.544Z,17.22
2014-06-06T05:29:30.219Z,17.17
2014-06-06T05:30:35.205Z,16.89
2014-06-06T05:31:40.191Z,17.11
2014-06-06T05:32:44.865Z,17.02
2014-06-06T05:33:49.851Z,17.14
2014-06-06T05:34:54.542Z,17.41
2014-06-06T05:35:59.215Z,17.31
2014-06-06T05:37:03.904Z,16.84
2014-06-06T05:38:08.594Z,16.95
2014-06-06T05:39:13.582Z,16.56
2014-06-06T05:40:18.256Z,16.99
2014-06-06T05:41:22.945Z,17.46
2014-06-06T05:42:27.635Z,17.66
2014-06-06T05:43:32.308Z,17.77
2014-06-06T05:44:37.294Z,17.73
2014-06-06T05:45:42.281Z,17.36
2014-06-06T05:46:47.252Z,17.59
2014-06-06T05:47:51.942Z,17.49
2014-06-06T05:48:56.630Z,17.4
2014-06-06T05:50:01.304Z,17.61
2014-06-06T05:51:05.994Z,17.8
2014-06-06T05:52:10.667Z,17.78
2014-06-06T05:53:14.968Z,18.13
2014-06-06T05:54:19.938Z,18.02
2014-06-06T05:55:24.924Z,18.22
2014-06-06T05:56:29.614Z,18.42
2014-06-06T05:57:34.304Z,18.54
2014-06-06T05:58:38.994Z,18.78
2014-06-06T05:59:43.667Z,18.84
2014-06-06T06:00:48.356Z,18.56
2014-06-06T06:01:53.327Z,19.02
2014-06-06T06:02:58.313Z,18.91
2014-06-06T06:04:03.003Z,19.47
2014-06-06T06:05:07.691Z,21.59
2014-06-06T06:06:12.365Z,24.65
2014-06-06T06:07:17.057Z,27.18
2014-06-06T06:08:21.732Z,28.88
2014-06-06T06:09:26.421Z,29.03
2014-06-06T06:10:31.125Z,29.64
2014-06-06T06:11:35.799Z,30.61
2014-06-06T06:12:40.489Z,31.77
2014-06-06T06:13:45.179Z,31.88
2014-06-06T06:14:49.869Z,31.3
2014-06-06T06:15:54.557Z,31.38
2014-06-06T06:16:58.559Z,32.03
2014-06-06T06:18:03.249Z,32.31
2014-06-06T06:19:07.938Z,32.32
2014-06-06T06:20:12.628Z,33.67
2014-06-06T06:21:17.317Z,34.29
2014-06-06T06:22:22.008Z,34.27
2014-06-06T06:23:26.698Z,34.59
2014-06-06T06:24:31.388Z,35.18
2014-06-06T06:25:36.076Z,35.22
2014-06-06T06:26:40.781Z,35.16
2014-06-06T06:27:45.471Z,36.15
2014-06-06T06:28:50.160Z,35.97
2014-06-06T06:29:55.147Z,36.2
2014-06-06T06:31:00.149Z,36.13
2014-06-06T06:32:04.838Z,36.51
2014-06-06T06:33:09.527Z,36.79
2014-06-06T06:34:13.545Z,34.53
2014-06-06T06:35:18.234Z,31.59
2014-06-06T06:36:22.925Z,29.17
2014-06-06T06:37:27.927Z,27.78
2014-06-06T06:38:32.618Z,27.07
2014-06-06T06:39:37.307Z,26.57
2014-06-06T06:40:41.996Z,26.07
2014-06-06T06:41:46.701Z,24.36
2014-06-06T06:42:51.390Z,24.23
2014-06-06T06:43:56.080Z,24.09
2014-06-06T06:45:01.066Z,23.81
2014-06-06T06:46:05.756Z,23.57
2014-06-06T06:47:10.445Z,23.37
2014-06-06T06:48:15.134Z,23.52
2014-06-06T06:49:19.824Z,23.3
2014-06-06T06:50:24.515Z,23.17
2014-06-06T06:51:29.204Z,22.6
2014-06-06T06:52:33.895Z,22.1
2014-06-06T06:53:38.880Z,21.33
2014-06-06T06:54:43.554Z,21.8
2014-06-06T06:55:48.244Z,22.02
2014-06-06T06:56:52.933Z,22.18
2014-06-06T06:57:57.623Z,22.28
2014-06-06T06:59:02.609Z,22.34
2014-06-06T07:00:07.298Z,22.59
2014-06-06T07:01:11.988Z,22.57
2014-06-06T07:02:16.677Z,22.46
2014-06-06T07:03:21.351Z,22.28
2014-06-06T07:04:26.057Z,21.92
2014-06-06T07:05:30.747Z,22.04
2014-06-06T07:06:35.436Z,21.49
2014-06-06T07:07:40.110Z,22.12
2014-06-06T07:08:44.800Z,22.1
2014-06-06T07:09:49.786Z,21.08
2014-06-06T07:10:53.788Z,21.68
2014-06-06T07:11:58.478Z,21.87
2014-06-06T07:13:03.167Z,22.23
2014-06-06T07:14:07.841Z,21.88
2014-06-06T07:15:12.531Z,21.82
2014-06-06T07:16:17.219Z,21.53
2014-06-06T07:17:21.910Z,21.24
2014-06-06T07:18:26.600Z,21.27
2014-06-06T07:19:31.290Z,21.34
2014-06-06T07:20:35.276Z,21.66
2014-06-06T07:21:39.965Z,21.9
2014-06-06T07:22:44.655Z,22.41
2014-06-06T07:23:49.641Z,22.71
2014-06-06T07:24:54.331Z,22.51
2014-06-06T07:25:59.005Z,22.39
2014-06-06T07:27:03.694Z,22.46
2014-06-06T07:28:08.384Z,22.44
2014-06-06T07:29:13.369Z,22.2
2014-06-06T07:30:18.060Z,22.35
2014-06-06T07:31:22.749Z,22.61
2014-06-06T07:32:27.423Z,23
2014-06-06T07:33:32.113Z,22.76
2014-06-06T07:34:36.803Z,22.61
2014-06-06T07:35:41.492Z,22.79
2014-06-06T07:36:46.182Z,23.02
2014-06-06T07:37:51.168Z,23.26
2014-06-06T07:38:55.858Z,22.78
2014-06-06T07:40:00.531Z,23.2
2014-06-06T07:41:05.533Z,23.24
2014-06-06T07:42:10.222Z,22.99
2014-06-06T07:43:15.209Z,22.56
2014-06-06T07:44:20.180Z,22.88
2014-06-06T07:45:24.884Z,23.36
2014-06-06T07:46:29.558Z,23.51
2014-06-06T07:47:34.265Z,23.44
2014-06-06T07:48:38.955Z,23.54
2014-06-06T07:49:44.238Z,23.46
2014-06-06T07:50:48.912Z,23.54
2014-06-06T07:51:53.602Z,23.71
2014-06-06T07:52:58.588Z,24
2014-06-06T07:54:03.277Z,23.69
2014-06-06T07:55:07.967Z,22.93
2014-06-06T07:56:12.656Z,23.13
2014-06-06T07:57:17.329Z,23.14
2014-06-06T07:58:22.316Z,23.44
2014-06-06T07:59:27.006Z,23.55
2014-06-06T08:00:31.697Z,22.72
2014-06-06T08:01:36.386Z,23.02
2014-06-06T08:02:41.076Z,22.94
2014-06-06T08:03:45.764Z,22.68
2014-06-06T08:04:50.455Z,22.95
2014-06-06T08:05:55.441Z,23.29
2014-06-06T08:07:00.131Z,23.67
2014-06-06T08:08:04.820Z,23.76
2014-06-06T08:09:08.806Z,23.84
2014-06-06T08:10:13.807Z,24.07
2014-06-06T08:11:18.497Z,23.99
2014-06-06T08:12:23.484Z,23.6
2014-06-06T08:13:28.471Z,23.88
2014-06-06T08:14:33.159Z,23.7
2014-06-06T08:15:37.835Z,24.14
2014-06-06T08:16:42.525Z,23.37
2014-06-06T08:17:47.214Z,23.84
2014-06-06T08:18:51.904Z,23.28
2014-06-06T08:19:55.906Z,23.67
2014-06-06T08:21:00.595Z,23.38
2014-06-06T08:22:05.285Z,23.81
2014-06-06T08:23:09.974Z,23.77
2014-06-06T08:24:14.664Z,23.89
2014-06-06T08:25:19.352Z,24.23
2014-06-06T08:26:24.042Z,24.14
2014-06-06T08:27:28.731Z,23.97
2014-06-06T08:28:33.421Z,23.68
2014-06-06T08:29:38.096Z,23.96
2014-06-06T08:30:42.802Z,24.31
2014-06-06T08:31:47.490Z,23.47
2014-06-06T08:32:52.180Z,24.04
2014-06-06T08:33:56.869Z,24.32
2014-06-06T08:35:01.840Z,24.6
2014-06-06T08:36:06.529Z,24.25
2014-06-06T08:37:11.220Z,25.11
2014-06-06T08:38:15.908Z,25.46
2014-06-06T08:39:20.599Z,25.2
2014-06-06T08:40:25.287Z,25.36
2014-06-06T08:41:29.977Z,24.82
2014-06-06T08:42:34.666Z,24.58
2014-06-06T08:43:39.358Z,24.9
2014-06-06T08:44:44.344Z,25.07
2014-06-06T08:45:49.033Z,24.88
2014-06-06T08:46:53.722Z,25.16
2014-06-06T08:47:58.397Z,25.2
2014-06-06T08:49:03.087Z,25.32
2014-06-06T08:50:08.073Z,25.32
2014-06-06T08:51:12.762Z,24.96
2014-06-06T08:52:17.452Z,24.52
2014-06-06T08:53:22.437Z,24.35
2014-06-06T08:54:27.127Z,24.78
2014-06-06T08:55:31.816Z,24.82
2014-06-06T08:56:36.506Z,24.79
2014-06-06T08:57:41.197Z,24.98
2014-06-06T08:58:45.895Z,25.19
2014-06-06T08:59:50.623Z,25.22
2014-06-06T09:00:55.351Z,25.34
2014-06-06T09:02:00.078Z,25.23
2014-06-06T09:03:04.806Z,25.23
2014-06-06T09:04:09.511Z,25.29
2014-06-06T09:05:14.214Z,24.96
2014-06-06T09:06:18.918Z,24.75
2014-06-06T09:07:23.637Z,25.18
2014-06-06T09:08:28.325Z,25.12
2014-06-06T09:09:33.026Z,24.94
2014-06-06T09:10:37.736Z,25.1
2014-06-06T09:11:42.437Z,25.02
2014-06-06T09:12:47.131Z,25.15
2014-06-06T09:13:51.825Z,24.41
2014-06-06T09:14:56.516Z,24.96
2014-06-06T09:16:01.208Z,25.23
2014-06-06T09:17:05.898Z,25.6
2014-06-06T09:18:10.589Z,25.35
2014-06-06T09:19:15.576Z,25.42
2014-06-06T09:20:20.564Z,25.44
2014-06-06T09:21:25.253Z,25.64
2014-06-06T09:22:29.944Z,25.68
2014-06-06T09:23:34.931Z,25.75
2014-06-06T09:24:39.621Z,25.31
2014-06-06T09:25:44.313Z,25.36
2014-06-06T09:26:49.001Z,25.65
2014-06-06T09:27:53.691Z,25.8
2014-06-06T09:28:58.381Z,25.18
2014-06-06T09:30:03.070Z,25.12
2014-06-06T09:31:07.759Z,25.58
2014-06-06T09:32:12.449Z,25.47
2014-06-06T09:33:17.137Z,25.7
2014-06-06T09:34:21.828Z,25.6
2014-06-06T09:35:26.517Z,25.6
2014-06-06T09:36:31.207Z,25.35
2014-06-06T09:37:36.192Z,25.33
2014-06-06T09:38:40.882Z,25.68
2014-06-06T09:39:45.573Z,25.83
2014-06-06T09:40:50.263Z,25.89
2014-06-06T09:41:55.249Z,26.15
2014-06-06T09:42:59.939Z,25.87
2014-06-06T09:44:04.925Z,26.13
2014-06-06T09:45:09.614Z,26.25
2014-06-06T09:46:14.601Z,25.92
2014-06-06T09:47:19.290Z,26.36
2014-06-06T09:48:23.980Z,26.68
2014-06-06T09:49:28.966Z,25.98
2014-06-06T09:50:33.655Z,26.16
2014-06-06T09:51:38.345Z,26.46
2014-06-06T09:52:43.035Z,26.58
2014-06-06T09:53:47.725Z,26.62
2014-06-06T09:54:52.415Z,26.83
2014-06-06T09:55:57.104Z,26.69
2014-06-06T09:57:01.794Z,26.24
2014-06-06T09:58:06.483Z,26.22
2014-06-06T09:59:11.173Z,25.95
2014-06-06T10:00:15.878Z,26.2
2014-06-06T10:01:20.567Z,26.39
2014-06-06T10:02:25.257Z,26.71
2014-06-06T10:03:29.945Z,27.04
2014-06-06T10:04:34.636Z,26.89
2014-06-06T10:05:39.324Z,27.02
2014-06-06T10:06:44.014Z,27.21
2014-06-06T10:07:48.705Z,26.7
2014-06-06T10:08:53.395Z,26.96
2014-06-06T10:09:58.084Z,27.3
2014-06-06T10:11:02.774Z,27.11
2014-06-06T10:12:07.463Z,27.29
2014-06-06T10:13:12.449Z,27.51
2014-06-06T10:14:17.139Z,27.52
2014-06-06T10:15:22.126Z,27.01
2014-06-06T10:16:26.815Z,26.78
2014-06-06T10:17:31.505Z,27.39
2014-06-06T10:18:36.193Z,27.71
2014-06-06T10:19:40.884Z,27.76
2014-06-06T10:20:45.573Z,27.82
2014-06-06T10:21:50.264Z,27.83
2014-06-06T10:22:55.250Z,27.91
2014-06-06T10:23:59.940Z,28
2014-06-06T10:25:04.613Z,27.99
2014-06-06T10:26:09.319Z,28.53
2014-06-06T10:27:14.007Z,28.72
2014-06-06T10:28:18.009Z,28.96
2014-06-06T10:29:22.700Z,28.5
2014-06-06T10:30:27.388Z,28.83
2014-06-06T10:31:32.078Z,29.19
2014-06-06T10:32:37.064Z,29.14
2014-06-06T10:33:41.753Z,29.13
2014-06-06T10:34:46.459Z,29.65
2014-06-06T10:35:51.150Z,29.66
2014-06-06T10:36:56.136Z,29.7
2014-06-06T10:38:01.123Z,29.68
2014-06-06T10:39:05.812Z,29.34
2014-06-06T10:40:10.502Z,29.62
2014-06-06T10:41:15.207Z,29.6
2014-06-06T10:42:19.896Z,29.43
2014-06-06T10:43:24.882Z,29.44
2014-06-06T10:44:29.884Z,29.5
2014-06-06T10:45:34.573Z,29.49
2014-06-06T10:46:39.263Z,29.26
2014-06-06T10:47:43.952Z,29.3
2014-06-06T10:48:48.642Z,29.23
2014-06-06T10:49:53.333Z,29.06
2014-06-06T10:50:58.023Z,28.17
2014-06-06T10:52:02.711Z,28.27
2014-06-06T10:53:07.417Z,28.53
2014-06-06T10:54:12.123Z,28.84
2014-06-06T10:55:16.811Z,28.9
2014-06-06T10:56:21.502Z,29.02
2014-06-06T10:57:26.191Z,28.86
2014-06-06T10:58:30.880Z,28.89
2014-06-06T10:59:35.569Z,29.04
2014-06-06T11:00:40.260Z,28.8
2014-06-06T11:01:44.948Z,28.91
2014-06-06T11:02:49.638Z,28.72
2014-06-06T11:03:54.327Z,28.69
2014-06-06T11:04:59.019Z,28.69
2014-06-06T11:06:04.021Z,28.55
2014-06-06T11:07:08.709Z,28.62
2014-06-06T11:08:13.697Z,28.45
2014-06-06T11:09:18.683Z,28.68
2014-06-06T11:10:23.372Z,28.53
2014-06-06T11:11:28.374Z,28.55
2014-06-06T11:12:33.063Z,28.64
2014-06-06T11:13:37.753Z,28.81
2014-06-06T11:14:42.739Z,28.84
2014-06-06T11:15:47.444Z,28.46
2014-06-06T11:16:52.133Z,28.58
2014-06-06T11:17:57.120Z,28.04
2014-06-06T11:19:02.106Z,27.91
2014-06-06T11:20:06.796Z,28.26
2014-06-06T11:21:11.485Z,28.71
2014-06-06T11:22:16.192Z,28.66
2014-06-06T11:23:20.882Z,28.76
2014-06-06T11:24:25.571Z,28.92
2014-06-06T11:25:30.558Z,28.86
2014-06-06T11:26:35.247Z,28.88
2014-06-06T11:27:39.937Z,28.89
2014-06-06T11:28:44.642Z,28.34
2014-06-06T11:29:49.331Z,28.26
2014-06-06T11:30:54.020Z,27.99
2014-06-06T11:31:58.709Z,28.39
2014-06-06T11:33:03.400Z,28.58
2014-06-06T11:34:08.088Z,28.44
2014-06-06T11:35:12.778Z,28.78
2014-06-06T11:36:17.467Z,28.95
2014-06-06T11:37:22.471Z,29.09
2014-06-06T11:38:27.161Z,28.9
2014-06-06T11:39:31.850Z,28.61
2014-06-06T11:40:36.540Z,28.65
2014-06-06T11:41:41.245Z,28.61
2014-06-06T11:42:45.934Z,28.79
2014-06-06T11:43:50.624Z,29.1
2014-06-06T11:44:55.313Z,29.05
2014-06-06T11:46:00.003Z,28.72
2014-06-06T11:47:04.691Z,28.1
2014-06-06T11:48:09.381Z,28.65
2014-06-06T11:49:14.071Z,29.05
2014-06-06T11:50:19.058Z,29.06
2014-06-06T11:51:23.747Z,29.04
2014-06-06T11:52:28.436Z,29.2
2014-06-06T11:53:33.126Z,29.27
2014-06-06T11:54:37.817Z,29.23
2014-06-06T11:55:43.117Z,29.2
2014-06-06T11:56:47.805Z,29.36
2014-06-06T11:57:52.495Z,29.32
2014-06-06T11:58:57.185Z,28.84
2014-06-06T12:00:01.874Z,28.88
2014-06-06T12:01:06.563Z,29.3
2014-06-06T12:02:11.253Z,29.23
2014-06-06T12:03:15.942Z,28.94
2014-06-06T12:04:20.632Z,29.16
2014-06-06T12:05:25.321Z,29.43
2014-06-06T12:06:30.011Z,29.15
2014-06-06T12:07:34.700Z,29.28
2014-06-06T12:08:39.686Z,29.23
2014-06-06T12:09:44.392Z,29.29
2014-06-06T12:10:49.081Z,29.42
2014-06-06T12:11:53.771Z,29.6
2014-06-06T12:12:58.460Z,29.55
2014-06-06T12:14:03.152Z,29.24
2014-06-06T12:15:07.856Z,29.37
2014-06-06T12:16:12.545Z,29.48
2014-06-06T12:17:17.235Z,29.6
2014-06-06T12:18:21.955Z,29.52
2014-06-06T12:19:26.646Z,29.74
2014-06-06T12:20:31.334Z,29.39
2014-06-06T12:21:36.024Z,29.35
2014-06-06T12:22:40.729Z,29.44
2014-06-06T12:23:45.715Z,29.51
2014-06-06T12:24:50.702Z,29.69
2014-06-06T12:25:55.391Z,29.58
2014-06-06T12:27:00.096Z,29.52
2014-06-06T12:28:04.787Z,29.73
2014-06-06T12:29:09.788Z,29.78
2014-06-06T12:30:13.791Z,29.73
2014-06-06T12:31:18.776Z,29.71
2014-06-06T12:32:23.778Z,29.48
2014-06-06T12:33:28.468Z,29.59
2014-06-06T12:34:33.159Z,29.84
2014-06-06T12:35:37.849Z,29.8
2014-06-06T12:36:42.538Z,29.69
2014-06-06T12:37:47.228Z,29.69
2014-06-06T12:38:51.916Z,29.75
2014-06-06T12:39:56.904Z,29.82
2014-06-06T12:41:01.906Z,29.35
2014-06-06T12:42:06.595Z,29.56
2014-06-06T12:43:11.597Z,29.64
2014-06-06T12:44:16.286Z,29.72
2014-06-06T12:45:20.976Z,29.57
2014-06-06T12:46:25.665Z,29.66
2014-06-06T12:47:29.668Z,29.54
2014-06-06T12:48:34.654Z,29.72
2014-06-06T12:49:39.358Z,29.71
2014-06-06T12:50:44.048Z,29.76
2014-06-06T12:51:49.034Z,29.75
2014-06-06T12:52:53.724Z,29.72
2014-06-06T12:53:58.726Z,29.96
2014-06-06T12:55:03.416Z,29.88
2014-06-06T12:56:08.403Z,29.74
2014-06-06T12:57:13.405Z,29.83
2014-06-06T12:58:18.095Z,29.75
2014-06-06T12:59:22.784Z,29.91
2014-06-06T13:00:27.474Z,29.75
2014-06-06T13:01:32.163Z,29.64
2014-06-06T13:02:36.869Z,29.82
2014-06-06T13:03:41.558Z,30.01
2014-06-06T13:04:46.248Z,30.06
2014-06-06T13:05:50.936Z,30.15
2014-06-06T13:06:55.626Z,30.19
2014-06-06T13:08:00.315Z,30.14
2014-06-06T13:09:05.317Z,30.37
2014-06-06T13:10:10.009Z,30.27
2014-06-06T13:11:14.698Z,30.21
2014-06-06T13:12:19.388Z,30.17
2014-06-06T13:13:23.405Z,30.16
2014-06-06T13:14:28.095Z,30.18
2014-06-06T13:15:33.097Z,30.03
2014-06-06T13:16:38.083Z,30.03
2014-06-06T13:17:43.069Z,29.88
2014-06-06T13:18:47.758Z,30.04
2014-06-06T13:19:52.448Z,30
2014-06-06T13:20:57.137Z,30
2014-06-06T13:22:02.123Z,29.97
2014-06-06T13:23:07.111Z,30
2014-06-06T13:24:11.801Z,30.1
2014-06-06T13:25:16.803Z,30.1
2014-06-06T13:26:21.492Z,30.19
2014-06-06T13:27:26.181Z,29.98
2014-06-06T13:28:31.169Z,29.99
2014-06-06T13:29:35.857Z,29.9
2014-06-06T13:30:40.548Z,29.96
2014-06-06T13:31:45.236Z,30.01
2014-06-06T13:32:50.222Z,30.12
2014-06-06T13:33:55.224Z,30.07
2014-06-06T13:34:59.914Z,30.16
2014-06-06T13:36:04.604Z,30.17
2014-06-06T13:37:09.295Z,30.24
2014-06-06T13:38:13.984Z,30.21
2014-06-06T13:39:18.674Z,30.02
2014-06-06T13:40:23.660Z,29.95
2014-06-06T13:41:28.365Z,30
2014-06-06T13:42:33.351Z,30.03
2014-06-06T13:43:38.056Z,30.08
2014-06-06T13:44:42.746Z,30
2014-06-06T13:45:47.435Z,29.91
2014-06-06T13:46:52.422Z,30.01
2014-06-06T13:47:57.112Z,30
2014-06-06T13:49:02.113Z,30.05
2014-06-06T13:50:06.802Z,30.1
2014-06-06T13:51:11.493Z,30.12
2014-06-06T13:52:16.183Z,30.05
2014-06-06T13:53:20.873Z,29.95
2014-06-06T13:54:25.578Z,29.97
2014-06-06T13:55:30.267Z,29.84
2014-06-06T13:56:34.956Z,29.88
2014-06-06T13:57:39.646Z,29.88